sensor_id;sensor_type;location;lat;lon;timestamp;P1;durP1;ratioP1;P2;durP2;ratioP2
35442;SDS011;21561;55.654;37.592;2023-02-05T00:00:25;24.63;;;10.38;;
35442;SDS011;21561;55.654;37.592;2023-02-05T00:02:52;23.17;;;9.68;;
35442;SDS011;21561;55.654;37.592;2023-02-05T00:05:19;22.77;;;10.05;;
35442;SDS011;21561;55.654;37.592;2023-02-05T00:07:46;24.13;;;9.50;;
35442;SDS011;21561;55.654;37.592;2023-02-05T00:10:13;24.13;;;9.40;;
35442;SDS011;21561;55.654;37.592;2023-02-05T00:12:40;23.50;;;9.65;;
35442;SDS011;21561;55.654;37.592;2023-02-05T00:15:06;24.98;;;10.30;;
35442;SDS011;21561;55.654;37.592;2023-02-05T00:17:34;24.20;;;9.68;;
35442;SDS011;21561;55.654;37.592;2023-02-05T00:20:03;23.05;;;9.52;;
35442;SDS011;21561;55.654;37.592;2023-02-05T00:22:31;24.40;;;9.75;;
35442;SDS011;21561;55.654;37.592;2023-02-05T00:24:58;23.25;;;10.07;;
35442;SDS011;21561;55.654;37.592;2023-02-05T00:27:25;21.45;;;8.75;;
35442;SDS011;21561;55.654;37.592;2023-02-05T00:29:52;23.20;;;10.00;;
35442;SDS011;21561;55.654;37.592;2023-02-05T00:32:18;23.13;;;9.52;;
35442;SDS011;21561;55.654;37.592;2023-02-05T00:34:45;25.33;;;9.20;;
35442;SDS011;21561;55.654;37.592;2023-02-05T00:37:12;22.65;;;8.07;;
35442;SDS011;21561;55.654;37.592;2023-02-05T00:39:39;22.55;;;8.82;;
35442;SDS011;21561;55.654;37.592;2023-02-05T00:42:06;23.20;;;9.20;;
35442;SDS011;21561;55.654;37.592;2023-02-05T00:44:32;21.70;;;8.98;;
35442;SDS011;21561;55.654;37.592;2023-02-05T00:46:59;27.13;;;10.38;;
35442;SDS011;21561;55.654;37.592;2023-02-05T00:49:26;26.40;;;10.63;;
35442;SDS011;21561;55.654;37.592;2023-02-05T00:51:53;24.25;;;9.95;;
35442;SDS011;21561;55.654;37.592;2023-02-05T00:54:20;24.13;;;9.20;;
35442;SDS011;21561;55.654;37.592;2023-02-05T00:56:47;22.92;;;9.18;;
35442;SDS011;21561;55.654;37.592;2023-02-05T00:59:13;22.75;;;9.18;;
35442;SDS011;21561;55.654;37.592;2023-02-05T01:01:40;21.50;;;8.65;;
35442;SDS011;21561;55.654;37.592;2023-02-05T01:04:07;22.83;;;9.32;;
35442;SDS011;21561;55.654;37.592;2023-02-05T01:06:34;25.02;;;9.55;;
35442;SDS011;21561;55.654;37.592;2023-02-05T01:09:01;23.67;;;9.05;;
35442;SDS011;21561;55.654;37.592;2023-02-05T01:11:27;22.10;;;8.60;;
35442;SDS011;21561;55.654;37.592;2023-02-05T01:13:54;22.83;;;8.90;;
35442;SDS011;21561;55.654;37.592;2023-02-05T01:16:21;21.88;;;8.98;;
35442;SDS011;21561;55.654;37.592;2023-02-05T01:18:48;23.60;;;8.93;;
35442;SDS011;21561;55.654;37.592;2023-02-05T01:21:15;21.20;;;8.95;;
35442;SDS011;21561;55.654;37.592;2023-02-05T01:23:42;23.35;;;8.45;;
35442;SDS011;21561;55.654;37.592;2023-02-05T01:26:08;21.25;;;8.88;;
35442;SDS011;21561;55.654;37.592;2023-02-05T01:28:35;21.63;;;8.43;;
35442;SDS011;21561;55.654;37.592;2023-02-05T01:31:02;22.05;;;9.23;;
35442;SDS011;21561;55.654;37.592;2023-02-05T01:33:29;22.63;;;9.38;;
35442;SDS011;21561;55.654;37.592;2023-02-05T01:35:56;24.85;;;10.15;;
35442;SDS011;21561;55.654;37.592;2023-02-05T01:38:22;28.25;;;10.57;;
35442;SDS011;21561;55.654;37.592;2023-02-05T01:40:50;25.17;;;10.27;;
35442;SDS011;21561;55.654;37.592;2023-02-05T01:43:17;24.95;;;10.30;;
35442;SDS011;21561;55.654;37.592;2023-02-05T01:48:24;26.80;;;11.52;;
35442;SDS011;21561;55.654;37.592;2023-02-05T01:50:56;30.23;;;11.70;;
35442;SDS011;21561;55.654;37.592;2023-02-05T01:53:29;24.90;;;10.73;;
35442;SDS011;21561;55.654;37.592;2023-02-05T01:56:05;25.95;;;11.15;;
35442;SDS011;21561;55.654;37.592;2023-02-05T01:58:40;28.00;;;11.57;;
35442;SDS011;21561;55.654;37.592;2023-02-05T02:01:10;25.33;;;11.05;;
35442;SDS011;21561;55.654;37.592;2023-02-05T02:03:37;25.77;;;10.63;;
35442;SDS011;21561;55.654;37.592;2023-02-05T02:06:06;25.77;;;10.07;;
35442;SDS011;21561;55.654;37.592;2023-02-05T02:08:33;25.38;;;10.93;;
35442;SDS011;21561;55.654;37.592;2023-02-05T02:11:00;27.10;;;10.88;;
35442;SDS011;21561;55.654;37.592;2023-02-05T02:13:30;22.98;;;10.35;;
35442;SDS011;21561;55.654;37.592;2023-02-05T02:16:00;25.08;;;10.15;;
35442;SDS011;21561;55.654;37.592;2023-02-05T02:18:28;22.38;;;9.52;;
35442;SDS011;21561;55.654;37.592;2023-02-05T02:29:22;22.10;;;10.05;;
35442;SDS011;21561;55.654;37.592;2023-02-05T02:32:04;23.80;;;9.65;;
35442;SDS011;21561;55.654;37.592;2023-02-05T02:34:43;22.52;;;9.18;;
35442;SDS011;21561;55.654;37.592;2023-02-05T02:37:24;21.08;;;9.35;;
35442;SDS011;21561;55.654;37.592;2023-02-05T02:40:07;22.58;;;8.68;;
35442;SDS011;21561;55.654;37.592;2023-02-05T02:42:39;20.55;;;7.68;;
35442;SDS011;21561;55.654;37.592;2023-02-05T02:45:12;20.80;;;8.48;;
35442;SDS011;21561;55.654;37.592;2023-02-05T02:47:43;20.25;;;7.88;;
35442;SDS011;21561;55.654;37.592;2023-02-05T02:50:16;23.98;;;9.23;;
35442;SDS011;21561;55.654;37.592;2023-02-05T02:53:07;21.42;;;8.73;;
35442;SDS011;21561;55.654;37.592;2023-02-05T02:55:40;20.45;;;7.82;;
35442;SDS011;21561;55.654;37.592;2023-02-05T02:58:12;22.55;;;8.75;;
35442;SDS011;21561;55.654;37.592;2023-02-05T03:00:46;23.02;;;8.07;;
35442;SDS011;21561;55.654;37.592;2023-02-05T03:03:14;20.08;;;7.15;;
35442;SDS011;21561;55.654;37.592;2023-02-05T03:05:44;20.83;;;7.95;;
35442;SDS011;21561;55.654;37.592;2023-02-05T03:08:15;20.20;;;8.35;;
35442;SDS011;21561;55.654;37.592;2023-02-05T03:10:55;22.92;;;7.25;;
35442;SDS011;21561;55.654;37.592;2023-02-05T03:13:30;19.52;;;6.95;;
35442;SDS011;21561;55.654;37.592;2023-02-05T03:15:57;17.13;;;6.05;;
35442;SDS011;21561;55.654;37.592;2023-02-05T03:18:24;18.48;;;7.13;;
35442;SDS011;21561;55.654;37.592;2023-02-05T03:20:55;19.23;;;6.70;;
35442;SDS011;21561;55.654;37.592;2023-02-05T03:23:29;21.05;;;7.25;;
35442;SDS011;21561;55.654;37.592;2023-02-05T03:25:56;19.25;;;7.22;;
35442;SDS011;21561;55.654;37.592;2023-02-05T03:28:23;19.92;;;7.22;;
35442;SDS011;21561;55.654;37.592;2023-02-05T03:33:38;17.13;;;6.60;;
35442;SDS011;21561;55.654;37.592;2023-02-05T03:39:03;18.35;;;6.70;;
35442;SDS011;21561;55.654;37.592;2023-02-05T03:42:11;18.60;;;6.93;;
35442;SDS011;21561;55.654;37.592;2023-02-05T03:50:06;17.30;;;6.05;;
35442;SDS011;21561;55.654;37.592;2023-02-05T03:52:36;17.92;;;6.63;;
35442;SDS011;21561;55.654;37.592;2023-02-05T03:55:19;18.92;;;7.10;;
35442;SDS011;21561;55.654;37.592;2023-02-05T04:00:25;22.40;;;8.13;;
35442;SDS011;21561;55.654;37.592;2023-02-05T04:02:53;19.70;;;7.13;;
35442;SDS011;21561;55.654;37.592;2023-02-05T04:05:20;16.88;;;6.25;;
35442;SDS011;21561;55.654;37.592;2023-02-05T04:07:48;19.45;;;7.35;;
35442;SDS011;21561;55.654;37.592;2023-02-05T04:10:16;20.92;;;7.78;;
35442;SDS011;21561;55.654;37.592;2023-02-05T04:12:44;18.73;;;7.03;;
35442;SDS011;21561;55.654;37.592;2023-02-05T04:15:11;19.75;;;7.68;;
35442;SDS011;21561;55.654;37.592;2023-02-05T04:17:38;20.60;;;8.15;;
35442;SDS011;21561;55.654;37.592;2023-02-05T04:20:05;22.05;;;7.72;;
35442;SDS011;21561;55.654;37.592;2023-02-05T04:22:33;19.33;;;7.97;;
35442;SDS011;21561;55.654;37.592;2023-02-05T04:25:00;19.83;;;7.55;;
35442;SDS011;21561;55.654;37.592;2023-02-05T04:27:28;19.45;;;7.45;;
35442;SDS011;21561;55.654;37.592;2023-02-05T04:29:55;19.58;;;7.72;;
35442;SDS011;21561;55.654;37.592;2023-02-05T04:32:22;20.88;;;8.20;;
35442;SDS011;21561;55.654;37.592;2023-02-05T04:34:48;20.55;;;8.63;;
35442;SDS011;21561;55.654;37.592;2023-02-05T04:37:15;21.38;;;8.65;;
35442;SDS011;21561;55.654;37.592;2023-02-05T04:39:42;21.67;;;7.82;;
35442;SDS011;21561;55.654;37.592;2023-02-05T04:42:09;19.63;;;8.10;;
35442;SDS011;21561;55.654;37.592;2023-02-05T04:44:36;20.42;;;8.27;;
35442;SDS011;21561;55.654;37.592;2023-02-05T04:47:02;21.48;;;7.88;;
35442;SDS011;21561;55.654;37.592;2023-02-05T04:49:33;23.17;;;8.85;;
35442;SDS011;21561;55.654;37.592;2023-02-05T04:52:00;21.00;;;8.35;;
35442;SDS011;21561;55.654;37.592;2023-02-05T04:54:27;22.27;;;8.45;;
35442;SDS011;21561;55.654;37.592;2023-02-05T04:56:54;19.52;;;7.75;;
35442;SDS011;21561;55.654;37.592;2023-02-05T04:59:21;21.45;;;8.25;;
35442;SDS011;21561;55.654;37.592;2023-02-05T05:01:47;21.30;;;7.68;;
35442;SDS011;21561;55.654;37.592;2023-02-05T05:04:14;24.77;;;9.00;;
35442;SDS011;21561;55.654;37.592;2023-02-05T05:06:41;23.77;;;8.82;;
35442;SDS011;21561;55.654;37.592;2023-02-05T05:09:08;20.17;;;8.27;;
35442;SDS011;21561;55.654;37.592;2023-02-05T05:11:35;19.77;;;7.57;;
35442;SDS011;21561;55.654;37.592;2023-02-05T05:14:01;21.80;;;8.13;;
35442;SDS011;21561;55.654;37.592;2023-02-05T05:16:28;20.42;;;7.68;;
35442;SDS011;21561;55.654;37.592;2023-02-05T05:18:55;19.55;;;7.57;;
35442;SDS011;21561;55.654;37.592;2023-02-05T05:21:22;18.23;;;6.55;;
35442;SDS011;21561;55.654;37.592;2023-02-05T05:23:49;19.65;;;6.40;;
35442;SDS011;21561;55.654;37.592;2023-02-05T05:26:15;19.15;;;6.22;;
35442;SDS011;21561;55.654;37.592;2023-02-05T05:28:42;18.50;;;6.38;;
35442;SDS011;21561;55.654;37.592;2023-02-05T05:31:11;17.83;;;5.82;;
35442;SDS011;21561;55.654;37.592;2023-02-05T05:33:40;15.38;;;4.82;;
35442;SDS011;21561;55.654;37.592;2023-02-05T05:36:08;17.48;;;6.03;;
35442;SDS011;21561;55.654;37.592;2023-02-05T05:38:35;16.88;;;6.07;;
35442;SDS011;21561;55.654;37.592;2023-02-05T05:41:01;18.17;;;5.80;;
35442;SDS011;21561;55.654;37.592;2023-02-05T05:43:47;18.05;;;5.43;;
35442;SDS011;21561;55.654;37.592;2023-02-05T05:46:16;15.50;;;5.03;;
35442;SDS011;21561;55.654;37.592;2023-02-05T05:48:52;14.88;;;5.20;;
35442;SDS011;21561;55.654;37.592;2023-02-05T05:51:22;16.10;;;5.35;;
35442;SDS011;21561;55.654;37.592;2023-02-05T05:53:50;16.55;;;5.80;;
35442;SDS011;21561;55.654;37.592;2023-02-05T05:56:17;17.50;;;5.90;;
35442;SDS011;21561;55.654;37.592;2023-02-05T05:58:45;19.13;;;6.18;;
35442;SDS011;21561;55.654;37.592;2023-02-05T06:01:13;17.45;;;6.35;;
35442;SDS011;21561;55.654;37.592;2023-02-05T06:03:41;17.52;;;6.25;;
35442;SDS011;21561;55.654;37.592;2023-02-05T06:06:09;17.67;;;5.70;;
35442;SDS011;21561;55.654;37.592;2023-02-05T06:08:37;17.73;;;6.20;;
35442;SDS011;21561;55.654;37.592;2023-02-05T06:11:04;18.42;;;6.30;;
35442;SDS011;21561;55.654;37.592;2023-02-05T06:13:32;17.75;;;5.85;;
35442;SDS011;21561;55.654;37.592;2023-02-05T06:16:00;18.15;;;6.00;;
35442;SDS011;21561;55.654;37.592;2023-02-05T06:18:27;17.65;;;5.60;;
35442;SDS011;21561;55.654;37.592;2023-02-05T06:20:53;16.15;;;5.80;;
35442;SDS011;21561;55.654;37.592;2023-02-05T06:23:20;18.92;;;6.03;;
35442;SDS011;21561;55.654;37.592;2023-02-05T06:25:47;17.10;;;6.15;;
35442;SDS011;21561;55.654;37.592;2023-02-05T06:28:14;17.52;;;6.30;;
35442;SDS011;21561;55.654;37.592;2023-02-05T06:30:41;17.85;;;5.95;;
35442;SDS011;21561;55.654;37.592;2023-02-05T06:33:07;19.58;;;6.85;;
35442;SDS011;21561;55.654;37.592;2023-02-05T06:35:37;19.98;;;6.93;;
35442;SDS011;21561;55.654;37.592;2023-02-05T06:38:04;17.95;;;5.60;;
35442;SDS011;21561;55.654;37.592;2023-02-05T06:40:31;20.42;;;6.75;;
35442;SDS011;21561;55.654;37.592;2023-02-05T06:42:58;19.13;;;6.88;;
35442;SDS011;21561;55.654;37.592;2023-02-05T06:45:25;22.23;;;6.78;;
35442;SDS011;21561;55.654;37.592;2023-02-05T06:47:52;20.17;;;7.28;;
35442;SDS011;21561;55.654;37.592;2023-02-05T06:50:21;19.73;;;6.75;;
35442;SDS011;21561;55.654;37.592;2023-02-05T06:52:49;16.85;;;6.13;;
35442;SDS011;21561;55.654;37.592;2023-02-05T06:55:16;21.23;;;7.65;;
35442;SDS011;21561;55.654;37.592;2023-02-05T06:57:43;16.25;;;5.50;;
35442;SDS011;21561;55.654;37.592;2023-02-05T07:00:10;18.27;;;6.70;;
35442;SDS011;21561;55.654;37.592;2023-02-05T07:02:38;18.88;;;6.80;;
35442;SDS011;21561;55.654;37.592;2023-02-05T07:05:05;15.75;;;5.40;;
35442;SDS011;21561;55.654;37.592;2023-02-05T07:07:32;19.23;;;6.90;;
35442;SDS011;21561;55.654;37.592;2023-02-05T07:09:59;19.17;;;6.85;;
35442;SDS011;21561;55.654;37.592;2023-02-05T07:12:26;18.05;;;6.85;;
35442;SDS011;21561;55.654;37.592;2023-02-05T07:14:53;18.05;;;6.88;;
35442;SDS011;21561;55.654;37.592;2023-02-05T07:17:21;19.92;;;7.57;;
35442;SDS011;21561;55.654;37.592;2023-02-05T07:19:48;17.98;;;6.68;;
35442;SDS011;21561;55.654;37.592;2023-02-05T07:22:15;18.60;;;7.28;;
35442;SDS011;21561;55.654;37.592;2023-02-05T07:24:42;19.45;;;6.78;;
35442;SDS011;21561;55.654;37.592;2023-02-05T07:27:09;20.65;;;7.35;;
35442;SDS011;21561;55.654;37.592;2023-02-05T07:29:36;18.48;;;6.68;;
35442;SDS011;21561;55.654;37.592;2023-02-05T07:32:02;18.13;;;7.00;;
35442;SDS011;21561;55.654;37.592;2023-02-05T07:34:29;19.00;;;7.25;;
35442;SDS011;21561;55.654;37.592;2023-02-05T07:36:56;19.63;;;6.70;;
35442;SDS011;21561;55.654;37.592;2023-02-05T07:39:23;20.23;;;7.10;;
35442;SDS011;21561;55.654;37.592;2023-02-05T07:41:58;18.23;;;6.50;;
35442;SDS011;21561;55.654;37.592;2023-02-05T07:44:34;18.60;;;6.75;;
35442;SDS011;21561;55.654;37.592;2023-02-05T07:47:00;18.98;;;6.20;;
35442;SDS011;21561;55.654;37.592;2023-02-05T07:49:27;19.48;;;6.68;;
35442;SDS011;21561;55.654;37.592;2023-02-05T07:51:54;16.60;;;6.05;;
35442;SDS011;21561;55.654;37.592;2023-02-05T07:54:21;19.85;;;6.57;;
35442;SDS011;21561;55.654;37.592;2023-02-05T07:56:48;18.25;;;6.72;;
35442;SDS011;21561;55.654;37.592;2023-02-05T07:59:14;16.13;;;5.90;;
35442;SDS011;21561;55.654;37.592;2023-02-05T08:01:41;18.98;;;7.07;;
35442;SDS011;21561;55.654;37.592;2023-02-05T08:04:08;19.27;;;6.55;;
35442;SDS011;21561;55.654;37.592;2023-02-05T08:06:35;19.23;;;6.85;;
35442;SDS011;21561;55.654;37.592;2023-02-05T08:09:02;18.98;;;7.13;;
35442;SDS011;21561;55.654;37.592;2023-02-05T08:11:28;17.75;;;7.03;;
35442;SDS011;21561;55.654;37.592;2023-02-05T08:13:57;19.70;;;7.05;;
35442;SDS011;21561;55.654;37.592;2023-02-05T08:16:26;19.73;;;7.30;;
35442;SDS011;21561;55.654;37.592;2023-02-05T08:18:53;18.92;;;6.93;;
35442;SDS011;21561;55.654;37.592;2023-02-05T08:21:20;21.27;;;7.50;;
35442;SDS011;21561;55.654;37.592;2023-02-05T08:23:47;19.63;;;7.20;;
35442;SDS011;21561;55.654;37.592;2023-02-05T08:26:15;21.23;;;6.90;;
35442;SDS011;21561;55.654;37.592;2023-02-05T08:28:43;20.27;;;6.95;;
35442;SDS011;21561;55.654;37.592;2023-02-05T08:31:12;20.73;;;7.25;;
35442;SDS011;21561;55.654;37.592;2023-02-05T08:33:40;17.40;;;6.47;;
35442;SDS011;21561;55.654;37.592;2023-02-05T08:36:07;15.90;;;6.07;;
35442;SDS011;21561;55.654;37.592;2023-02-05T08:38:34;20.25;;;6.97;;
35442;SDS011;21561;55.654;37.592;2023-02-05T08:41:05;19.55;;;6.38;;
35442;SDS011;21561;55.654;37.592;2023-02-05T08:43:41;20.55;;;7.60;;
35442;SDS011;21561;55.654;37.592;2023-02-05T08:46:10;19.02;;;7.53;;
35442;SDS011;21561;55.654;37.592;2023-02-05T08:48:39;19.90;;;6.85;;
35442;SDS011;21561;55.654;37.592;2023-02-05T08:51:08;23.83;;;6.68;;
35442;SDS011;21561;55.654;37.592;2023-02-05T08:53:35;20.05;;;7.13;;
35442;SDS011;21561;55.654;37.592;2023-02-05T08:56:02;19.98;;;7.30;;
35442;SDS011;21561;55.654;37.592;2023-02-05T08:58:30;19.00;;;6.63;;
35442;SDS011;21561;55.654;37.592;2023-02-05T09:00:59;18.50;;;6.75;;
35442;SDS011;21561;55.654;37.592;2023-02-05T09:03:27;18.73;;;6.95;;
35442;SDS011;21561;55.654;37.592;2023-02-05T09:05:54;20.92;;;7.03;;
35442;SDS011;21561;55.654;37.592;2023-02-05T09:08:21;18.85;;;7.03;;
35442;SDS011;21561;55.654;37.592;2023-02-05T09:10:47;19.30;;;7.00;;
35442;SDS011;21561;55.654;37.592;2023-02-05T09:13:14;19.33;;;6.60;;
35442;SDS011;21561;55.654;37.592;2023-02-05T09:16:09;18.48;;;6.97;;
35442;SDS011;21561;55.654;37.592;2023-02-05T09:18:36;18.38;;;6.72;;
35442;SDS011;21561;55.654;37.592;2023-02-05T09:21:07;19.25;;;6.90;;
35442;SDS011;21561;55.654;37.592;2023-02-05T09:23:36;17.48;;;6.32;;
35442;SDS011;21561;55.654;37.592;2023-02-05T09:26:03;19.25;;;6.38;;
35442;SDS011;21561;55.654;37.592;2023-02-05T09:28:30;20.95;;;6.85;;
35442;SDS011;21561;55.654;37.592;2023-02-05T09:30:57;18.75;;;6.47;;
35442;SDS011;21561;55.654;37.592;2023-02-05T09:33:24;17.77;;;6.40;;
35442;SDS011;21561;55.654;37.592;2023-02-05T09:35:51;17.65;;;6.25;;
35442;SDS011;21561;55.654;37.592;2023-02-05T09:38:17;17.80;;;5.90;;
35442;SDS011;21561;55.654;37.592;2023-02-05T09:40:55;19.92;;;6.22;;
35442;SDS011;21561;55.654;37.592;2023-02-05T09:43:41;19.50;;;6.70;;
35442;SDS011;21561;55.654;37.592;2023-02-05T09:49:01;18.17;;;6.28;;
35442;SDS011;21561;55.654;37.592;2023-02-05T09:51:33;23.30;;;7.68;;
35442;SDS011;21561;55.654;37.592;2023-02-05T09:54:10;19.60;;;6.57;;
35442;SDS011;21561;55.654;37.592;2023-02-05T09:56:49;19.92;;;6.40;;
35442;SDS011;21561;55.654;37.592;2023-02-05T09:59:19;19.17;;;5.88;;
35442;SDS011;21561;55.654;37.592;2023-02-05T10:01:55;16.40;;;6.07;;
35442;SDS011;21561;55.654;37.592;2023-02-05T10:04:25;17.73;;;6.13;;
35442;SDS011;21561;55.654;37.592;2023-02-05T10:12:23;19.80;;;5.97;;
35442;SDS011;21561;55.654;37.592;2023-02-05T10:23:11;17.63;;;5.78;;
35442;SDS011;21561;55.654;37.592;2023-02-05T10:37:17;16.95;;;5.68;;
35442;SDS011;21561;55.654;37.592;2023-02-05T10:39:46;15.60;;;5.35;;
35442;SDS011;21561;55.654;37.592;2023-02-05T10:44:52;21.23;;;5.53;;
35442;SDS011;21561;55.654;37.592;2023-02-05T10:48:21;15.70;;;4.97;;
35442;SDS011;21561;55.654;37.592;2023-02-05T10:50:42;17.83;;;5.35;;
35442;SDS011;21561;55.654;37.592;2023-02-05T10:53:10;15.40;;;5.50;;
35442;SDS011;21561;55.654;37.592;2023-02-05T10:55:38;16.05;;;4.78;;
35442;SDS011;21561;55.654;37.592;2023-02-05T10:58:48;16.80;;;5.45;;
35442;SDS011;21561;55.654;37.592;2023-02-05T11:01:50;14.98;;;4.65;;
35442;SDS011;21561;55.654;37.592;2023-02-05T11:04:11;13.05;;;4.18;;
35442;SDS011;21561;55.654;37.592;2023-02-05T11:06:44;16.30;;;4.95;;
35442;SDS011;21561;55.654;37.592;2023-02-05T11:11:51;13.98;;;4.68;;
35442;SDS011;21561;55.654;37.592;2023-02-05T11:14:20;16.88;;;5.50;;
35442;SDS011;21561;55.654;37.592;2023-02-05T11:16:51;15.23;;;4.85;;
35442;SDS011;21561;55.654;37.592;2023-02-05T11:19:20;14.55;;;4.85;;
35442;SDS011;21561;55.654;37.592;2023-02-05T11:21:56;18.23;;;5.80;;
35442;SDS011;21561;55.654;37.592;2023-02-05T11:24:32;15.60;;;4.65;;
35442;SDS011;21561;55.654;37.592;2023-02-05T11:29:41;15.18;;;4.78;;
35442;SDS011;21561;55.654;37.592;2023-02-05T11:32:31;15.80;;;5.63;;
35442;SDS011;21561;55.654;37.592;2023-02-05T11:35:32;16.85;;;6.72;;
35442;SDS011;21561;55.654;37.592;2023-02-05T11:37:58;14.23;;;4.93;;
35442;SDS011;21561;55.654;37.592;2023-02-05T11:40:32;15.77;;;4.93;;
35442;SDS011;21561;55.654;37.592;2023-02-05T11:45:38;15.27;;;5.05;;
35442;SDS011;21561;55.654;37.592;2023-02-05T11:48:19;16.60;;;4.80;;
35442;SDS011;21561;55.654;37.592;2023-02-05T11:50:47;16.80;;;4.80;;
35442;SDS011;21561;55.654;37.592;2023-02-05T11:53:14;14.38;;;3.90;;
35442;SDS011;21561;55.654;37.592;2023-02-05T11:55:45;12.30;;;3.22;;
35442;SDS011;21561;55.654;37.592;2023-02-05T11:58:21;12.50;;;4.25;;
35442;SDS011;21561;55.654;37.592;2023-02-05T12:01:03;15.32;;;4.40;;
35442;SDS011;21561;55.654;37.592;2023-02-05T12:03:32;16.50;;;5.38;;
35442;SDS011;21561;55.654;37.592;2023-02-05T12:08:49;17.48;;;5.43;;
35442;SDS011;21561;55.654;37.592;2023-02-05T12:14:35;16.10;;;6.25;;
35442;SDS011;21561;55.654;37.592;2023-02-05T12:31:01;17.45;;;6.30;;
35442;SDS011;21561;55.654;37.592;2023-02-05T12:33:42;16.73;;;5.90;;
35442;SDS011;21561;55.654;37.592;2023-02-05T12:42:08;18.30;;;6.78;;
35442;SDS011;21561;55.654;37.592;2023-02-05T12:47:28;18.52;;;6.32;;
35442;SDS011;21561;55.654;37.592;2023-02-05T12:58:12;19.13;;;6.93;;
35442;SDS011;21561;55.654;37.592;2023-02-05T13:00:52;20.33;;;6.75;;
35442;SDS011;21561;55.654;37.592;2023-02-05T13:06:06;18.67;;;6.65;;
35442;SDS011;21561;55.654;37.592;2023-02-05T13:08:45;19.40;;;6.93;;
35442;SDS011;21561;55.654;37.592;2023-02-05T13:11:27;17.30;;;6.55;;
35442;SDS011;21561;55.654;37.592;2023-02-05T13:21:42;15.85;;;5.47;;
35442;SDS011;21561;55.654;37.592;2023-02-05T13:24:31;15.10;;;4.82;;
35442;SDS011;21561;55.654;37.592;2023-02-05T13:27:24;15.73;;;5.63;;
35442;SDS011;21561;55.654;37.592;2023-02-05T13:30:18;14.43;;;4.75;;
35442;SDS011;21561;55.654;37.592;2023-02-05T13:33:05;15.27;;;5.15;;
35442;SDS011;21561;55.654;37.592;2023-02-05T13:35:44;15.30;;;5.55;;
35442;SDS011;21561;55.654;37.592;2023-02-05T13:38:45;14.10;;;4.78;;
35442;SDS011;21561;55.654;37.592;2023-02-05T13:44:30;16.50;;;5.28;;
35442;SDS011;21561;55.654;37.592;2023-02-05T13:58:53;16.20;;;6.22;;
35442;SDS011;21561;55.654;37.592;2023-02-05T14:01:26;16.35;;;5.90;;
35442;SDS011;21561;55.654;37.592;2023-02-05T14:03:58;18.98;;;6.05;;
35442;SDS011;21561;55.654;37.592;2023-02-05T14:06:31;18.60;;;6.47;;
35442;SDS011;21561;55.654;37.592;2023-02-05T14:11:52;18.80;;;6.43;;
35442;SDS011;21561;55.654;37.592;2023-02-05T14:14:32;18.20;;;6.50;;
35442;SDS011;21561;55.654;37.592;2023-02-05T14:19:58;18.50;;;6.57;;
35442;SDS011;21561;55.654;37.592;2023-02-05T14:30:46;21.58;;;7.78;;
35442;SDS011;21561;55.654;37.592;2023-02-05T14:38:42;20.23;;;7.50;;
35442;SDS011;21561;55.654;37.592;2023-02-05T14:41:15;20.70;;;7.30;;
35442;SDS011;21561;55.654;37.592;2023-02-05T14:43:53;19.83;;;6.80;;
35442;SDS011;21561;55.654;37.592;2023-02-05T14:49:06;20.35;;;7.32;;
35442;SDS011;21561;55.654;37.592;2023-02-05T14:51:53;21.02;;;7.50;;
35442;SDS011;21561;55.654;37.592;2023-02-05T14:54:47;22.70;;;7.30;;
35442;SDS011;21561;55.654;37.592;2023-02-05T14:57:22;22.08;;;7.75;;
35442;SDS011;21561;55.654;37.592;2023-02-05T14:59:55;19.75;;;6.90;;
35442;SDS011;21561;55.654;37.592;2023-02-05T15:05:17;22.83;;;7.82;;
35442;SDS011;21561;55.654;37.592;2023-02-05T15:07:52;24.65;;;8.27;;
35442;SDS011;21561;55.654;37.592;2023-02-05T15:10:56;24.77;;;8.07;;
35442;SDS011;21561;55.654;37.592;2023-02-05T15:13:58;19.95;;;7.20;;
35442;SDS011;21561;55.654;37.592;2023-02-05T15:16:45;20.88;;;7.22;;
35442;SDS011;21561;55.654;37.592;2023-02-05T15:19:13;19.88;;;7.03;;
35442;SDS011;21561;55.654;37.592;2023-02-05T15:21:47;20.05;;;7.53;;
35442;SDS011;21561;55.654;37.592;2023-02-05T15:24:20;21.35;;;7.63;;
35442;SDS011;21561;55.654;37.592;2023-02-05T15:26:59;19.50;;;6.88;;
35442;SDS011;21561;55.654;37.592;2023-02-05T15:29:46;18.92;;;6.88;;
35442;SDS011;21561;55.654;37.592;2023-02-05T15:34:51;19.92;;;6.47;;
35442;SDS011;21561;55.654;37.592;2023-02-05T15:37:26;20.70;;;7.70;;
35442;SDS011;21561;55.654;37.592;2023-02-05T15:42:36;21.65;;;7.65;;
35442;SDS011;21561;55.654;37.592;2023-02-05T15:50:31;17.35;;;5.85;;
35442;SDS011;21561;55.654;37.592;2023-02-05T15:53:00;17.80;;;5.57;;
35442;SDS011;21561;55.654;37.592;2023-02-05T15:55:30;22.85;;;7.82;;
35442;SDS011;21561;55.654;37.592;2023-02-05T15:57:59;17.27;;;5.28;;
35442;SDS011;21561;55.654;37.592;2023-02-05T16:00:31;19.10;;;6.60;;
35442;SDS011;21561;55.654;37.592;2023-02-05T16:03:00;21.73;;;7.22;;
35442;SDS011;21561;55.654;37.592;2023-02-05T16:05:30;21.10;;;7.68;;
35442;SDS011;21561;55.654;37.592;2023-02-05T16:07:58;22.23;;;7.78;;
35442;SDS011;21561;55.654;37.592;2023-02-05T16:10:28;19.75;;;7.30;;
35442;SDS011;21561;55.654;37.592;2023-02-05T16:13:01;21.27;;;7.80;;
35442;SDS011;21561;55.654;37.592;2023-02-05T16:15:50;22.83;;;7.72;;
35442;SDS011;21561;55.654;37.592;2023-02-05T16:18:32;20.48;;;7.35;;
35442;SDS011;21561;55.654;37.592;2023-02-05T16:21:02;20.77;;;7.65;;
35442;SDS011;21561;55.654;37.592;2023-02-05T16:23:43;19.38;;;7.35;;
35442;SDS011;21561;55.654;37.592;2023-02-05T16:26:25;19.17;;;7.05;;
35442;SDS011;21561;55.654;37.592;2023-02-05T16:29:02;19.50;;;7.18;;
35442;SDS011;21561;55.654;37.592;2023-02-05T16:31:56;18.15;;;6.57;;
35442;SDS011;21561;55.654;37.592;2023-02-05T16:34:25;20.05;;;6.57;;
35442;SDS011;21561;55.654;37.592;2023-02-05T16:36:52;20.33;;;6.85;;
35442;SDS011;21561;55.654;37.592;2023-02-05T16:39:27;18.17;;;5.97;;
35442;SDS011;21561;55.654;37.592;2023-02-05T16:42:08;16.42;;;6.28;;
35442;SDS011;21561;55.654;37.592;2023-02-05T16:45:04;15.93;;;4.32;;
35442;SDS011;21561;55.654;37.592;2023-02-05T16:47:44;18.20;;;6.10;;
35442;SDS011;21561;55.654;37.592;2023-02-05T16:50:42;18.63;;;5.70;;
35442;SDS011;21561;55.654;37.592;2023-02-05T16:53:15;17.90;;;5.68;;
35442;SDS011;21561;55.654;37.592;2023-02-05T16:55:48;16.25;;;5.18;;
35442;SDS011;21561;55.654;37.592;2023-02-05T16:58:21;17.75;;;6.03;;
35442;SDS011;21561;55.654;37.592;2023-02-05T17:00:52;17.77;;;6.32;;
35442;SDS011;21561;55.654;37.592;2023-02-05T17:03:27;16.70;;;5.53;;
35442;SDS011;21561;55.654;37.592;2023-02-05T17:06:02;16.80;;;6.10;;
35442;SDS011;21561;55.654;37.592;2023-02-05T17:08:38;17.65;;;5.65;;
35442;SDS011;21561;55.654;37.592;2023-02-05T17:11:28;16.88;;;6.03;;
35442;SDS011;21561;55.654;37.592;2023-02-05T17:17:02;16.42;;;5.10;;
35442;SDS011;21561;55.654;37.592;2023-02-05T17:19:41;14.77;;;4.95;;
35442;SDS011;21561;55.654;37.592;2023-02-05T17:24:43;17.42;;;5.30;;
35442;SDS011;21561;55.654;37.592;2023-02-05T17:27:16;15.73;;;4.75;;
35442;SDS011;21561;55.654;37.592;2023-02-05T17:29:47;17.15;;;5.55;;
35442;SDS011;21561;55.654;37.592;2023-02-05T17:32:15;17.33;;;5.90;;